Cheapside, Texas
Current Conditions -  °F | °C
As of 12:51 PM on Monday 22 Dec 2014 (Local Time) from KVCT Reporting Station
Scattered Clouds Scattered Clouds  
Wind Chill: 72°   Ceiling: Unl
Heat Index: 72°   Visibility: 10mi
Dew Point: 60°   Wind: 14mph
Humidity: 66%   Direction: 190°S
Pressure: 29.7"   Gusts: NA
Location:  29.0941°N, 97.191°W
Report Text: KVCT 221851Z 19012KT 10SM SCT055 22/16 A2970 RMK AO2 SLP055 T02220156
Loading
Personal Weather Stations






























Interactive Weather Map New forecast layout! Learn more

10-Day Weather Forecast

Advertisements
Track Severe Weather on mobile